createdAt,value
2018-11-06T00:02:35.162Z,55.03
2018-11-06T00:07:37.835Z,55.73
2018-11-06T00:12:40.220Z,53.23
2018-11-06T00:17:42.153Z,51.13
2018-11-06T00:22:44.368Z,51.27
2018-11-06T00:27:46.304Z,53.77
2018-11-06T00:32:48.444Z,54.33
2018-11-06T00:37:50.832Z,49.87
2018-11-06T00:42:52.820Z,56.53
2018-11-06T00:47:54.748Z,51.43
2018-11-06T00:52:57.689Z,54.57
2018-11-06T00:57:59.609Z,52.67
2018-11-06T01:03:01.547Z,52.70
2018-11-06T01:08:03.493Z,54.03
2018-11-06T01:13:05.696Z,56.73
2018-11-06T01:18:07.640Z,53.17
2018-11-06T01:23:09.951Z,51.07
2018-11-06T01:28:11.903Z,48.50
2018-11-06T01:33:14.013Z,46.37
2018-11-06T01:38:16.027Z,47.73
2018-11-06T01:43:18.279Z,48.33
2018-11-06T01:48:20.894Z,44.57
2018-11-06T01:53:23.459Z,45.77
2018-11-06T01:58:25.374Z,45.77
2018-11-06T02:03:27.348Z,43.90
2018-11-06T02:08:29.295Z,42.20
2018-11-06T02:13:31.243Z,42.50
2018-11-06T02:18:33.360Z,45.83
2018-11-06T02:23:35.859Z,43.67
2018-11-06T02:28:38.667Z,43.87
2018-11-06T02:33:41.306Z,47.73
2018-11-06T02:38:43.844Z,41.37
2018-11-06T02:43:45.992Z,45.17
2018-11-06T02:48:47.934Z,44.40
2018-11-06T02:53:50.159Z,42.60
2018-11-06T02:58:52.082Z,44.30
2018-11-06T03:03:54.007Z,46.40
2018-11-06T03:08:57.016Z,41.97
2018-11-06T03:13:58.983Z,45.73
2018-11-06T03:19:00.922Z,49.93
2018-11-06T03:24:03.255Z,43.13
2018-11-06T03:29:05.194Z,44.40
2018-11-06T03:34:07.282Z,43.60
2018-11-06T03:39:09.699Z,48.40
2018-11-06T03:44:11.673Z,46.73
2018-11-06T03:49:13.606Z,45.97
2018-11-06T03:54:15.943Z,42.93
2018-11-06T03:59:18.542Z,42.40
2018-11-06T04:04:20.541Z,45.63
2018-11-06T04:09:22.899Z,46.20
2018-11-06T04:14:24.852Z,48.83
2018-11-06T04:19:27.442Z,46.47
2018-11-06T04:24:29.421Z,46.00
2018-11-06T04:29:31.707Z,41.63
2018-11-06T04:34:33.915Z,49.50
2018-11-06T04:39:35.872Z,44.20
2018-11-06T04:44:38.173Z,47.70
2018-11-06T04:49:40.123Z,44.30
2018-11-06T04:54:42.231Z,44.87
2018-11-06T04:59:44.289Z,45.17
2018-11-06T05:04:46.285Z,45.83
2018-11-06T05:09:49.626Z,46.33
2018-11-06T05:14:51.903Z,42.33
2018-11-06T05:19:54.126Z,46.80
2018-11-06T05:24:56.068Z,48.20
2018-11-06T05:29:57.997Z,46.77
2018-11-06T05:35:00.247Z,46.77
2018-11-06T05:40:14.023Z,49.07
2018-11-06T05:45:15.979Z,44.17
2018-11-06T05:50:17.906Z,48.87
2018-11-06T05:55:20.202Z,45.20
2018-11-06T06:00:22.167Z,44.17
2018-11-06T06:05:24.120Z,49.37
2018-11-06T06:10:26.539Z,45.00
2018-11-06T06:15:28.621Z,44.03
2018-11-06T06:20:30.579Z,43.53
2018-11-06T06:25:32.499Z,44.97
2018-11-06T06:30:35.051Z,40.90
2018-11-06T06:35:36.988Z,39.87
2018-11-06T06:40:39.046Z,41.20
2018-11-06T06:45:41.021Z,39.17
2018-11-06T06:50:42.949Z,41.13
2018-11-06T06:55:45.212Z,40.33
2018-11-06T07:00:47.169Z,39.13
2018-11-06T07:05:49.107Z,42.63
2018-11-06T07:10:51.200Z,43.37
2018-11-06T07:15:53.161Z,38.97
2018-11-06T07:20:55.112Z,36.97
2018-11-06T07:25:57.038Z,36.50
2018-11-06T07:30:58.976Z,36.93
2018-11-06T07:36:01.195Z,35.20
2018-11-06T07:41:03.405Z,38.20
2018-11-06T07:46:05.828Z,37.30
2018-11-06T07:51:08.041Z,39.13
2018-11-06T07:56:10.000Z,41.30
2018-11-06T08:01:11.956Z,39.43
2018-11-06T08:06:13.898Z,35.77
2018-11-06T08:11:15.952Z,38.37
2018-11-06T08:16:17.859Z,38.70
2018-11-06T08:21:19.795Z,36.37
2018-11-06T08:26:21.706Z,40.53
2018-11-06T08:31:23.874Z,36.90
2018-11-06T08:36:25.707Z,35.27
2018-11-06T08:41:28.889Z,34.40
2018-11-06T08:46:31.439Z,33.77
2018-11-06T08:51:33.360Z,33.47
2018-11-06T08:56:35.364Z,36.67
2018-11-06T09:01:37.920Z,34.60
2018-11-06T09:06:39.944Z,32.23
2018-11-06T09:11:41.887Z,29.90
2018-11-06T09:16:43.804Z,31.67
2018-11-06T09:21:45.711Z,35.43
2018-11-06T09:26:47.644Z,32.80
2018-11-06T09:31:49.748Z,32.87
2018-11-06T09:36:51.665Z,30.97
2018-11-06T09:41:53.615Z,29.07
2018-11-06T09:46:55.515Z,33.13
2018-11-06T09:51:57.466Z,31.20
2018-11-06T09:56:59.731Z,27.00
2018-11-06T10:02:01.717Z,30.67
2018-11-06T10:07:03.923Z,25.87
2018-11-06T10:12:06.078Z,25.27
2018-11-06T10:17:08.003Z,27.20
2018-11-06T10:22:09.951Z,28.77
2018-11-06T10:27:11.900Z,25.57
2018-11-06T10:32:13.818Z,26.50
2018-11-06T10:37:15.866Z,27.83
2018-11-06T10:42:17.807Z,28.27
2018-11-06T10:47:19.757Z,30.13
2018-11-06T10:52:21.683Z,24.47
2018-11-06T10:57:23.606Z,28.57
2018-11-06T11:02:31.358Z,27.70
2018-11-06T11:07:33.304Z,27.90
2018-11-06T11:12:35.448Z,24.93
2018-11-06T11:17:37.623Z,29.93
2018-11-06T11:22:40.095Z,26.47
2018-11-06T11:27:42.467Z,25.40
2018-11-06T11:32:45.734Z,24.93
2018-11-06T11:37:47.836Z,25.17
2018-11-06T11:42:49.708Z,22.43
2018-11-06T11:47:51.951Z,23.23
2018-11-06T11:52:54.133Z,23.40
2018-11-06T11:57:56.424Z,24.80
2018-11-06T12:02:58.335Z,21.80
2018-11-06T12:08:00.674Z,24.90
2018-11-06T12:13:02.608Z,23.23
2018-11-06T12:18:04.841Z,22.43
2018-11-06T12:23:06.812Z,22.03
2018-11-06T12:28:08.900Z,27.53
2018-11-06T12:33:10.871Z,22.93
2018-11-06T12:38:12.960Z,24.53
2018-11-06T12:43:15.258Z,20.77
2018-11-06T12:48:17.238Z,21.83
2018-11-06T12:53:19.167Z,18.30
2018-11-06T12:58:25.720Z,24.83
2018-11-06T13:03:27.724Z,15.93
2018-11-06T13:08:29.631Z,16.53
2018-11-06T13:13:31.760Z,14.73
2018-11-06T13:18:33.979Z,16.27
2018-11-06T13:23:36.284Z,63.40
2018-11-06T13:28:38.471Z,90.67
2018-11-06T13:33:40.481Z,16.30
2018-11-06T13:38:42.419Z,15.10
2018-11-06T13:43:44.595Z,14.40
2018-11-06T13:48:46.346Z,13.40
2018-11-06T13:53:48.279Z,15.00
2018-11-06T13:58:50.240Z,11.33
2018-11-06T14:03:52.188Z,13.90
2018-11-06T14:08:54.296Z,14.93
2018-11-06T14:13:56.484Z,13.33
2018-11-06T14:18:58.468Z,10.27
2018-11-06T14:24:00.391Z,13.07
2018-11-06T14:29:02.345Z,14.27
2018-11-06T14:34:04.425Z,15.73
2018-11-06T14:39:06.914Z,19.37
2018-11-06T14:44:08.872Z,19.40
2018-11-06T14:49:10.854Z,20.20
2018-11-06T14:54:12.821Z,19.57
2018-11-06T14:59:15.084Z,18.80
2018-11-06T15:04:17.031Z,23.10
2018-11-06T15:09:19.000Z,20.30
2018-11-06T15:14:21.057Z,24.07
2018-11-06T15:19:23.312Z,24.53
2018-11-06T15:24:25.227Z,25.13
2018-11-06T15:29:27.169Z,27.57
2018-11-06T15:34:29.105Z,27.10
2018-11-06T15:39:31.094Z,23.87
2018-11-06T15:44:33.197Z,26.53
2018-11-06T15:49:35.099Z,24.70
2018-11-06T15:54:37.127Z,28.93
2018-11-06T15:59:38.964Z,28.70
2018-11-06T16:04:40.903Z,30.00
2018-11-06T16:09:42.849Z,33.03
2018-11-06T16:14:45.068Z,33.57
2018-11-06T16:19:47.032Z,36.20
2018-11-06T16:24:49.552Z,33.77
2018-11-06T16:29:51.534Z,34.73
2018-11-06T16:34:53.691Z,32.80
2018-11-06T16:39:55.683Z,36.00
2018-11-06T16:44:57.660Z,33.83
2018-11-06T16:49:59.620Z,34.87
2018-11-06T16:55:01.981Z,36.67
2018-11-06T17:00:05.319Z,33.10
2018-11-06T17:05:07.896Z,32.83
2018-11-06T17:10:11.059Z,32.03
2018-11-06T17:15:14.850Z,32.20
2018-11-06T17:20:17.111Z,37.77
2018-11-06T17:25:20.305Z,34.87
2018-11-06T17:30:22.255Z,34.83
2018-11-06T17:35:24.186Z,37.27
2018-11-06T17:40:26.141Z,37.50
2018-11-06T17:45:28.161Z,34.27
2018-11-06T17:50:36.782Z,37.57
2018-11-06T17:55:39.327Z,36.63
2018-11-06T18:00:41.272Z,34.33
2018-11-06T18:05:43.199Z,40.10
2018-11-06T18:10:45.131Z,37.93
2018-11-06T18:15:47.278Z,40.83
2018-11-06T18:20:49.367Z,45.37
2018-11-06T18:25:51.458Z,42.07
2018-11-06T18:30:53.247Z,39.87
2018-11-06T18:35:55.176Z,38.60
2018-11-06T18:40:57.283Z,42.27
2018-11-06T18:45:59.226Z,40.53
2018-11-06T18:51:01.155Z,40.27
2018-11-06T18:56:03.312Z,42.90
2018-11-06T19:01:05.469Z,43.10
2018-11-06T19:06:07.567Z,40.23
2018-11-06T19:11:09.484Z,41.37
2018-11-06T19:16:11.478Z,45.77
2018-11-06T19:21:13.463Z,43.37
2018-11-06T19:26:15.376Z,45.93
2018-11-06T19:31:17.587Z,45.07
2018-11-06T19:36:19.605Z,42.43
2018-11-06T19:41:21.524Z,48.43
2018-11-06T19:46:23.463Z,46.37
2018-11-06T19:51:25.435Z,46.43
2018-11-06T19:56:27.391Z,43.37
2018-11-06T20:01:29.311Z,41.50
2018-11-06T20:06:31.275Z,43.33
2018-11-06T20:11:33.303Z,43.93
2018-11-06T20:16:35.179Z,46.03
2018-11-06T20:21:37.334Z,43.67
2018-11-06T20:26:39.307Z,47.07
2018-11-06T20:31:41.253Z,45.40
2018-11-06T20:36:43.574Z,44.73
2018-11-06T20:41:45.590Z,48.07
2018-11-06T20:46:47.538Z,58.07
2018-11-06T20:51:50.291Z,46.10
2018-11-06T20:56:52.413Z,45.83
2018-11-06T21:01:54.475Z,47.37
2018-11-06T21:06:56.679Z,46.63
2018-11-06T21:11:58.634Z,46.90
2018-11-06T21:17:00.505Z,53.27
2018-11-06T21:22:02.916Z,55.43
2018-11-06T21:27:05.552Z,52.43
2018-11-06T21:32:07.325Z,53.63
2018-11-06T21:37:09.561Z,51.90
2018-11-06T21:42:11.548Z,56.03
2018-11-06T21:47:13.484Z,57.93
2018-11-06T21:52:15.440Z,55.03
2018-11-06T21:57:17.465Z,57.60
2018-11-06T22:02:19.427Z,56.77
2018-11-06T22:07:21.361Z,62.30
2018-11-06T22:12:23.349Z,60.03
2018-11-06T22:17:25.585Z,60.13
2018-11-06T22:22:27.596Z,63.07
2018-11-06T22:27:29.539Z,56.87
2018-11-06T22:32:32.217Z,57.80
2018-11-06T22:37:34.359Z,59.47
2018-11-06T22:42:36.868Z,62.23
2018-11-06T22:47:39.053Z,61.80
2018-11-06T22:52:41.369Z,67.87
2018-11-06T22:57:43.591Z,59.93
2018-11-06T23:02:45.515Z,57.63
2018-11-06T23:08:55.308Z,61.70
2018-11-06T23:13:57.254Z,59.83
2018-11-06T23:18:59.560Z,58.77
2018-11-06T23:24:01.567Z,59.07
2018-11-06T23:29:04.036Z,60.07
2018-11-06T23:34:06.107Z,59.17
2018-11-06T23:39:08.717Z,59.80
2018-11-06T23:44:10.671Z,63.23
2018-11-06T23:49:12.595Z,58.33
2018-11-06T23:54:14.512Z,57.73
2018-11-06T23:59:16.491Z,58.90
